sensor_id;sensor_type;location;lat;lon;timestamp;pressure;altitude;pressure_sealevel;temperature;humidity
7760;BME280;3924;48.830;9.262;2023-04-25T00:00:02;97986.34;;;9.69;67.83
7760;BME280;3924;48.830;9.262;2023-04-25T00:07:33;97985.97;;;9.62;67.99
7760;BME280;3924;48.830;9.262;2023-04-25T00:11:11;97995.16;;;9.60;68.13
7760;BME280;3924;48.830;9.262;2023-04-25T00:14:37;97987.03;;;9.60;68.01
7760;BME280;3924;48.830;9.262;2023-04-25T00:31:49;97976.41;;;9.50;68.44
7760;BME280;3924;48.830;9.262;2023-04-25T00:34:35;97977.53;;;9.49;68.60
7760;BME280;3924;48.830;9.262;2023-04-25T00:41:24;97976.50;;;9.45;68.55
7760;BME280;3924;48.830;9.262;2023-04-25T00:44:57;97971.72;;;9.42;68.81
7760;BME280;3924;48.830;9.262;2023-04-25T00:48:33;97959.16;;;9.46;68.76
7760;BME280;3924;48.830;9.262;2023-04-25T00:52:40;97960.19;;;9.50;68.50
7760;BME280;3924;48.830;9.262;2023-04-25T00:55:43;97960.19;;;9.50;68.45
7760;BME280;3924;48.830;9.262;2023-04-25T01:05:14;97953.97;;;9.50;68.74
7760;BME280;3924;48.830;9.262;2023-04-25T01:14:54;97950.47;;;9.49;68.93
7760;BME280;3924;48.830;9.262;2023-04-25T01:18:21;97947.28;;;9.47;68.95
7760;BME280;3924;48.830;9.262;2023-04-25T01:24:02;97943.47;;;9.48;69.00
7760;BME280;3924;48.830;9.262;2023-04-25T01:26:29;97940.22;;;9.46;69.04
7760;BME280;3924;48.830;9.262;2023-04-25T01:28:56;97938.63;;;9.45;69.10
7760;BME280;3924;48.830;9.262;2023-04-25T01:31:23;97942.94;;;9.46;69.21
7760;BME280;3924;48.830;9.262;2023-04-25T01:33:50;97935.44;;;9.43;69.15
7760;BME280;3924;48.830;9.262;2023-04-25T01:36:17;97926.81;;;9.41;69.25
7760;BME280;3924;48.830;9.262;2023-04-25T01:38:44;97935.22;;;9.40;69.32
7760;BME280;3924;48.830;9.262;2023-04-25T01:41:13;97933.63;;;9.39;69.21
7760;BME280;3924;48.830;9.262;2023-04-25T01:43:40;97931.72;;;9.39;69.40
7760;BME280;3924;48.830;9.262;2023-04-25T01:46:06;97935.22;;;9.40;69.46
7760;BME280;3924;48.830;9.262;2023-04-25T01:48:33;97935.44;;;9.43;69.24
7760;BME280;3924;48.830;9.262;2023-04-25T01:50:59;97940.84;;;9.43;69.27
7760;BME280;3924;48.830;9.262;2023-04-25T01:53:26;97939.75;;;9.44;69.34
7760;BME280;3924;48.830;9.262;2023-04-25T01:55:53;97939.56;;;9.41;69.31
7760;BME280;3924;48.830;9.262;2023-04-25T01:58:19;97937.66;;;9.41;69.23
7760;BME280;3924;48.830;9.262;2023-04-25T02:00:46;97941.16;;;9.42;69.49
7760;BME280;3924;48.830;9.262;2023-04-25T02:03:12;97939.81;;;9.39;69.39
7760;BME280;3924;48.830;9.262;2023-04-25T02:05:39;97940.34;;;9.41;69.38
7760;BME280;3924;48.830;9.262;2023-04-25T02:08:07;97936.03;;;9.40;69.80
7760;BME280;3924;48.830;9.262;2023-04-25T02:10:35;97937.13;;;9.39;69.37
7760;BME280;3924;48.830;9.262;2023-04-25T02:13:02;97930.09;;;9.38;69.39
7760;BME280;3924;48.830;9.262;2023-04-25T02:15:29;97932.81;;;9.38;69.28
7760;BME280;3924;48.830;9.262;2023-04-25T02:17:55;97934.72;;;9.38;69.52
7760;BME280;3924;48.830;9.262;2023-04-25T02:20:23;97935.22;;;9.40;69.42
7760;BME280;3924;48.830;9.262;2023-04-25T02:22:49;97933.94;;;9.37;69.34
7760;BME280;3924;48.830;9.262;2023-04-25T02:25:17;97924.22;;;9.36;69.35
7760;BME280;3924;48.830;9.262;2023-04-25T02:27:47;97916.41;;;9.35;69.38
7760;BME280;3924;48.830;9.262;2023-04-25T02:30:13;97921.81;;;9.35;69.58
7760;BME280;3924;48.830;9.262;2023-04-25T02:32:40;97918.59;;;9.32;69.53
7760;BME280;3924;48.830;9.262;2023-04-25T02:35:07;97908.56;;;9.33;69.70
7760;BME280;3924;48.830;9.262;2023-04-25T02:37:36;97915.06;;;9.32;69.70
7760;BME280;3924;48.830;9.262;2023-04-25T02:40:03;97928.91;;;9.30;69.74
7760;BME280;3924;48.830;9.262;2023-04-25T02:42:31;97925.72;;;9.28;69.88
7760;BME280;3924;48.830;9.262;2023-04-25T02:44:57;97926.81;;;9.27;69.85
7760;BME280;3924;48.830;9.262;2023-04-25T02:47:24;97925.50;;;9.25;70.00
7760;BME280;3924;48.830;9.262;2023-04-25T02:49:51;97920.38;;;9.23;69.84
7760;BME280;3924;48.830;9.262;2023-04-25T02:52:17;97912.59;;;9.22;69.98
7760;BME280;3924;48.830;9.262;2023-04-25T02:54:43;97917.50;;;9.20;70.09
7760;BME280;3924;48.830;9.262;2023-04-25T02:57:10;97912.28;;;9.23;70.18
7760;BME280;3924;48.830;9.262;2023-04-25T02:59:36;97902.75;;;9.26;69.91
7760;BME280;3924;48.830;9.262;2023-04-25T03:02:03;97911.97;;;9.25;69.89
7760;BME280;3924;48.830;9.262;2023-04-25T03:04:29;97905.28;;;9.22;70.01
7760;BME280;3924;48.830;9.262;2023-04-25T03:06:56;97911.78;;;9.21;70.07
7760;BME280;3924;48.830;9.262;2023-04-25T03:09:22;97913.69;;;9.21;70.20
7760;BME280;3924;48.830;9.262;2023-04-25T03:11:49;97911.56;;;9.18;69.99
7760;BME280;3924;48.830;9.262;2023-04-25T03:14:15;97911.56;;;9.18;70.18
7760;BME280;3924;48.830;9.262;2023-04-25T03:16:42;97911.38;;;9.14;70.29
7760;BME280;3924;48.830;9.262;2023-04-25T03:19:08;97906.56;;;9.11;70.38
7760;BME280;3924;48.830;9.262;2023-04-25T03:21:35;97900.66;;;9.09;70.42
7760;BME280;3924;48.830;9.262;2023-04-25T03:24:03;97894.94;;;9.11;70.63
7760;BME280;3924;48.830;9.262;2023-04-25T03:26:30;97888.72;;;9.10;70.31
7760;BME280;3924;48.830;9.262;2023-04-25T03:28:57;97896.53;;;9.12;70.55
7760;BME280;3924;48.830;9.262;2023-04-25T03:31:23;97885.72;;;9.12;70.57
7760;BME280;3924;48.830;9.262;2023-04-25T03:33:50;97892.22;;;9.11;70.51
7760;BME280;3924;48.830;9.262;2023-04-25T03:36:17;97902.56;;;9.09;70.66
7760;BME280;3924;48.830;9.262;2023-04-25T03:38:43;97903.66;;;9.08;70.81
7760;BME280;3924;48.830;9.262;2023-04-25T03:41:09;97906.94;;;9.04;70.92
7760;BME280;3924;48.830;9.262;2023-04-25T03:43:36;97902.94;;;9.02;70.92
7760;BME280;3924;48.830;9.262;2023-04-25T03:46:02;97916.75;;;9.00;70.98
7760;BME280;3924;48.830;9.262;2023-04-25T03:48:29;97904.03;;;9.01;70.85
7760;BME280;3924;48.830;9.262;2023-04-25T03:50:55;97909.63;;;9.04;70.89
7760;BME280;3924;48.830;9.262;2023-04-25T03:53:22;97911.84;;;9.02;71.01
7760;BME280;3924;48.830;9.262;2023-04-25T03:55:48;97905.34;;;9.03;71.08
7760;BME280;3924;48.830;9.262;2023-04-25T03:58:15;97905.94;;;9.00;71.15
7760;BME280;3924;48.830;9.262;2023-04-25T04:00:41;97904.84;;;9.01;71.10
7760;BME280;3924;48.830;9.262;2023-04-25T04:03:08;97900.81;;;8.99;71.14
7760;BME280;3924;48.830;9.262;2023-04-25T04:05:34;97889.22;;;8.98;71.33
7760;BME280;3924;48.830;9.262;2023-04-25T04:08:01;97900.03;;;8.98;71.28
7760;BME280;3924;48.830;9.262;2023-04-25T04:10:27;97898.72;;;8.96;71.16
7760;BME280;3924;48.830;9.262;2023-04-25T04:12:54;97900.63;;;8.95;71.21
7760;BME280;3924;48.830;9.262;2023-04-25T04:15:20;97897.22;;;8.90;71.41
7760;BME280;3924;48.830;9.262;2023-04-25T04:17:48;97898.63;;;8.87;71.50
7760;BME280;3924;48.830;9.262;2023-04-25T04:20:15;97894.88;;;8.83;71.42
7760;BME280;3924;48.830;9.262;2023-04-25T04:22:41;97900.28;;;8.83;71.50
7760;BME280;3924;48.830;9.262;2023-04-25T04:25:08;97902.91;;;8.88;71.39
7760;BME280;3924;48.830;9.262;2023-04-25T04:27:35;97904.53;;;8.89;71.43
7760;BME280;3924;48.830;9.262;2023-04-25T04:30:02;97914.22;;;8.90;71.40
7760;BME280;3924;48.830;9.262;2023-04-25T04:32:29;97912.94;;;8.88;71.50
7760;BME280;3924;48.830;9.262;2023-04-25T04:34:56;97918.34;;;8.88;71.35
7760;BME280;3924;48.830;9.262;2023-04-25T04:37:23;97909.94;;;8.89;71.67
7760;BME280;3924;48.830;9.262;2023-04-25T04:39:50;97914.75;;;8.92;71.57
7760;BME280;3924;48.830;9.262;2023-04-25T04:42:16;97914.16;;;8.95;71.52
7760;BME280;3924;48.830;9.262;2023-04-25T04:44:43;97917.94;;;8.94;71.44
7760;BME280;3924;48.830;9.262;2023-04-25T04:47:10;97928.16;;;8.97;71.58
7760;BME280;3924;48.830;9.262;2023-04-25T04:49:40;97924.34;;;8.98;71.52
7760;BME280;3924;48.830;9.262;2023-04-25T04:52:06;97920.56;;;8.99;71.43
7760;BME280;3924;48.830;9.262;2023-04-25T04:54:33;97919.75;;;8.99;71.39
7760;BME280;3924;48.830;9.262;2023-04-25T04:57:01;97923.28;;;8.99;71.56
7760;BME280;3924;48.830;9.262;2023-04-25T04:59:28;97930.78;;;9.02;71.48
7760;BME280;3924;48.830;9.262;2023-04-25T05:01:54;97934.28;;;9.03;71.41
7760;BME280;3924;48.830;9.262;2023-04-25T05:04:21;97940.97;;;9.05;71.75
7760;BME280;3924;48.830;9.262;2023-04-25T05:06:47;97951.31;;;9.03;71.52
7760;BME280;3924;48.830;9.262;2023-04-25T05:09:14;97941.09;;;9.00;71.56
7760;BME280;3924;48.830;9.262;2023-04-25T05:11:41;97951.91;;;9.00;71.70
7760;BME280;3924;48.830;9.262;2023-04-25T05:14:07;97941.91;;;9.01;71.49
7760;BME280;3924;48.830;9.262;2023-04-25T05:16:34;97940.97;;;9.05;71.69
7760;BME280;3924;48.830;9.262;2023-04-25T05:19:01;97947.41;;;9.10;71.47
7760;BME280;3924;48.830;9.262;2023-04-25T05:21:27;97933.31;;;9.13;71.50
7760;BME280;3924;48.830;9.262;2023-04-25T05:23:54;97945.84;;;9.22;71.59
7760;BME280;3924;48.830;9.262;2023-04-25T05:26:21;97933.22;;;9.31;71.28
7760;BME280;3924;48.830;9.262;2023-04-25T05:28:48;97942.34;;;9.36;71.18
7760;BME280;3924;48.830;9.262;2023-04-25T05:31:14;97933.81;;;9.28;71.28
7760;BME280;3924;48.830;9.262;2023-04-25T05:33:41;97943.94;;;9.23;71.50
7760;BME280;3924;48.830;9.262;2023-04-25T05:36:07;97948.84;;;9.21;71.54
7760;BME280;3924;48.830;9.262;2023-04-25T05:38:34;97952.66;;;9.20;71.55
7760;BME280;3924;48.830;9.262;2023-04-25T05:41:00;97945.81;;;9.09;71.63
7760;BME280;3924;48.830;9.262;2023-04-25T05:43:27;97952.59;;;8.92;71.84
7760;BME280;3924;48.830;9.262;2023-04-25T05:45:53;97952.06;;;8.90;71.70
7760;BME280;3924;48.830;9.262;2023-04-25T05:48:20;97953.41;;;8.93;72.02
7760;BME280;3924;48.830;9.262;2023-04-25T05:50:46;97950.38;;;8.94;71.99
7760;BME280;3924;48.830;9.262;2023-04-25T05:53:13;97946.09;;;8.93;72.06
7760;BME280;3924;48.830;9.262;2023-04-25T05:55:39;97945.06;;;8.89;72.35
7760;BME280;3924;48.830;9.262;2023-04-25T05:58:06;97954.84;;;8.85;72.28
7760;BME280;3924;48.830;9.262;2023-04-25T06:00:33;97945.44;;;8.83;72.68
7760;BME280;3924;48.830;9.262;2023-04-25T06:03:00;97942.34;;;8.89;72.59
7760;BME280;3924;48.830;9.262;2023-04-25T06:05:27;97949.78;;;8.97;72.39
7760;BME280;3924;48.830;9.262;2023-04-25T06:07:53;97963.22;;;9.02;72.60
7760;BME280;3924;48.830;9.262;2023-04-25T06:10:20;97959.00;;;8.96;72.55
7760;BME280;3924;48.830;9.262;2023-04-25T06:12:47;97960.47;;;8.89;72.81
7760;BME280;3924;48.830;9.262;2023-04-25T06:15:13;97957.56;;;8.85;72.91
7760;BME280;3924;48.830;9.262;2023-04-25T06:17:53;97963.88;;;8.81;72.82
7760;BME280;3924;48.830;9.262;2023-04-25T06:20:20;97962.97;;;8.85;73.06
7760;BME280;3924;48.830;9.262;2023-04-25T06:22:50;97964.78;;;8.90;72.89
7760;BME280;3924;48.830;9.262;2023-04-25T06:25:18;97958.09;;;8.87;73.04
7760;BME280;3924;48.830;9.262;2023-04-25T06:27:44;97949.16;;;8.87;72.98
7760;BME280;3924;48.830;9.262;2023-04-25T06:30:11;97953.16;;;8.89;73.05
7760;BME280;3924;48.830;9.262;2023-04-25T06:32:38;97947.69;;;8.94;72.90
7760;BME280;3924;48.830;9.262;2023-04-25T06:35:05;97939.59;;;9.08;72.89
7760;BME280;3924;48.830;9.262;2023-04-25T06:37:32;97936.53;;;9.28;72.74
7760;BME280;3924;48.830;9.262;2023-04-25T06:39:58;97941.25;;;9.50;72.32
7760;BME280;3924;48.830;9.262;2023-04-25T06:42:25;97931.03;;;9.61;72.02
7760;BME280;3924;48.830;9.262;2023-04-25T06:44:51;97928.59;;;9.73;71.79
7760;BME280;3924;48.830;9.262;2023-04-25T06:47:18;97923.41;;;9.77;71.93
7760;BME280;3924;48.830;9.262;2023-04-25T06:49:44;97930.19;;;9.88;71.72
7760;BME280;3924;48.830;9.262;2023-04-25T06:52:10;97937.22;;;9.89;71.60
7760;BME280;3924;48.830;9.262;2023-04-25T06:54:37;97941.63;;;9.85;71.79
7760;BME280;3924;48.830;9.262;2023-04-25T06:57:03;97940.03;;;9.84;71.75
7760;BME280;3924;48.830;9.262;2023-04-25T06:59:30;97952.94;;;9.87;71.69
7760;BME280;3924;48.830;9.262;2023-04-25T07:01:56;97943.72;;;9.88;71.65
7760;BME280;3924;48.830;9.262;2023-04-25T07:04:23;97948.16;;;9.84;71.71
7760;BME280;3924;48.830;9.262;2023-04-25T07:06:50;97942.94;;;9.74;71.95
7760;BME280;3924;48.830;9.262;2023-04-25T07:09:16;97940.84;;;9.71;72.00
7760;BME280;3924;48.830;9.262;2023-04-25T07:11:43;97947.06;;;9.71;71.88
7760;BME280;3924;48.830;9.262;2023-04-25T07:14:09;97947.84;;;9.72;71.86
7760;BME280;3924;48.830;9.262;2023-04-25T07:16:36;97943.06;;;9.69;72.02
7760;BME280;3924;48.830;9.262;2023-04-25T07:19:02;97952.06;;;9.64;72.07
7760;BME280;3924;48.830;9.262;2023-04-25T07:21:29;97955.78;;;9.68;72.12
7760;BME280;3924;48.830;9.262;2023-04-25T07:23:57;97945.16;;;9.72;72.37
7760;BME280;3924;48.830;9.262;2023-04-25T07:26:24;97948.88;;;9.76;71.94
7760;BME280;3924;48.830;9.262;2023-04-25T07:28:50;97952.06;;;9.78;71.87
7760;BME280;3924;48.830;9.262;2023-04-25T07:31:18;97962.50;;;9.71;71.84
7760;BME280;3924;48.830;9.262;2023-04-25T07:33:44;97956.28;;;9.56;72.19
7760;BME280;3924;48.830;9.262;2023-04-25T07:36:13;97968.31;;;9.50;72.39
7760;BME280;3924;48.830;9.262;2023-04-25T07:38:41;97961.28;;;9.49;72.52
7760;BME280;3924;48.830;9.262;2023-04-25T07:41:07;97964.09;;;9.44;72.40
7760;BME280;3924;48.830;9.262;2023-04-25T07:43:34;97963.91;;;9.41;72.57
7760;BME280;3924;48.830;9.262;2023-04-25T07:46:00;97966.88;;;9.39;72.80
7760;BME280;3924;48.830;9.262;2023-04-25T07:48:27;97971.00;;;9.37;72.79
7760;BME280;3924;48.830;9.262;2023-04-25T07:50:53;97972.41;;;9.34;72.87
7760;BME280;3924;48.830;9.262;2023-04-25T07:53:20;97974.09;;;9.30;72.92
7760;BME280;3924;48.830;9.262;2023-04-25T07:55:47;97977.91;;;9.29;72.98
7760;BME280;3924;48.830;9.262;2023-04-25T07:58:13;97980.69;;;9.24;73.13
7760;BME280;3924;48.830;9.262;2023-04-25T08:00:41;97982.91;;;9.22;73.07
7760;BME280;3924;48.830;9.262;2023-04-25T08:03:09;97985.38;;;9.18;73.28
7760;BME280;3924;48.830;9.262;2023-04-25T08:05:36;97987.28;;;9.18;73.39
7760;BME280;3924;48.830;9.262;2023-04-25T08:08:02;97993.28;;;9.15;73.46
7760;BME280;3924;48.830;9.262;2023-04-25T08:10:29;98003.16;;;9.05;73.52
7760;BME280;3924;48.830;9.262;2023-04-25T08:12:55;98003.06;;;8.97;73.84
7760;BME280;3924;48.830;9.262;2023-04-25T08:15:21;98005.56;;;8.93;73.97
7760;BME280;3924;48.830;9.262;2023-04-25T08:17:48;98001.81;;;8.89;74.15
7760;BME280;3924;48.830;9.262;2023-04-25T08:20:14;98011.09;;;8.83;74.27
7760;BME280;3924;48.830;9.262;2023-04-25T08:22:41;98016.31;;;8.80;74.50
7760;BME280;3924;48.830;9.262;2023-04-25T08:25:07;98022.81;;;8.79;74.78
7760;BME280;3924;48.830;9.262;2023-04-25T08:27:34;98022.81;;;8.79;74.82
7760;BME280;3924;48.830;9.262;2023-04-25T08:30:02;98026.91;;;8.76;74.63
7760;BME280;3924;48.830;9.262;2023-04-25T08:32:29;98028.22;;;8.79;75.14
7760;BME280;3924;48.830;9.262;2023-04-25T08:34:56;98034.34;;;8.84;75.31
7760;BME280;3924;48.830;9.262;2023-04-25T08:37:23;98041.28;;;8.90;75.19
7760;BME280;3924;48.830;9.262;2023-04-25T08:39:49;98042.28;;;8.94;74.86
7760;BME280;3924;48.830;9.262;2023-04-25T08:42:19;98046.16;;;9.07;75.00
7760;BME280;3924;48.830;9.262;2023-04-25T08:44:48;98052.19;;;9.18;74.96
7760;BME280;3924;48.830;9.262;2023-04-25T08:47:14;98051.63;;;9.21;74.89
7760;BME280;3924;48.830;9.262;2023-04-25T08:49:45;98051.00;;;9.24;75.08
7760;BME280;3924;48.830;9.262;2023-04-25T08:52:13;98052.19;;;9.18;75.26
7760;BME280;3924;48.830;9.262;2023-04-25T08:54:43;98059.38;;;9.09;75.29
7760;BME280;3924;48.830;9.262;2023-04-25T08:57:14;98061.72;;;8.96;75.79
7760;BME280;3924;48.830;9.262;2023-04-25T08:59:41;98064.06;;;8.84;76.00
7760;BME280;3924;48.830;9.262;2023-04-25T09:02:12;98075.41;;;8.67;76.05
7760;BME280;3924;48.830;9.262;2023-04-25T09:04:43;98082.31;;;8.55;76.43
7760;BME280;3924;48.830;9.262;2023-04-25T09:07:10;98081.13;;;8.42;76.82
7760;BME280;3924;48.830;9.262;2023-04-25T09:09:36;98083.72;;;8.28;77.03
7760;BME280;3924;48.830;9.262;2023-04-25T09:12:03;98085.31;;;8.29;77.20
7760;BME280;3924;48.830;9.262;2023-04-25T09:14:30;98094.44;;;8.38;77.37
7760;BME280;3924;48.830;9.262;2023-04-25T09:19:23;98091.66;;;8.43;77.52
7760;BME280;3924;48.830;9.262;2023-04-25T09:22:07;98103.00;;;8.45;77.69
7760;BME280;3924;48.830;9.262;2023-04-25T09:24:44;98099.69;;;8.48;77.80
7760;BME280;3924;48.830;9.262;2023-04-25T09:27:18;98111.09;;;8.45;77.72
7760;BME280;3924;48.830;9.262;2023-04-25T09:29:45;98115.34;;;8.52;78.11
7760;BME280;3924;48.830;9.262;2023-04-25T09:32:23;98114.38;;;8.61;78.09
7760;BME280;3924;48.830;9.262;2023-04-25T09:34:55;98111.94;;;8.65;77.88
7760;BME280;3924;48.830;9.262;2023-04-25T09:39:53;98119.56;;;8.58;78.14
7760;BME280;3924;48.830;9.262;2023-04-25T09:42:24;98127.97;;;8.56;78.25
7760;BME280;3924;48.830;9.262;2023-04-25T09:44:53;98139.56;;;8.57;78.26
7760;BME280;3924;48.830;9.262;2023-04-25T09:47:21;98128.75;;;8.57;78.28
7760;BME280;3924;48.830;9.262;2023-04-25T09:49:51;98144.47;;;8.55;78.25
7760;BME280;3924;48.830;9.262;2023-04-25T09:52:20;98139.13;;;8.49;78.32
7760;BME280;3924;48.830;9.262;2023-04-25T09:54:51;98142.47;;;8.41;78.56
7760;BME280;3924;48.830;9.262;2023-04-25T09:57:19;98143.78;;;8.44;78.78
7760;BME280;3924;48.830;9.262;2023-04-25T09:59:50;98145.66;;;8.43;78.74
7760;BME280;3924;48.830;9.262;2023-04-25T10:02:23;98149.47;;;8.42;79.02
7760;BME280;3924;48.830;9.262;2023-04-25T10:04:54;98147.88;;;8.41;79.38
7760;BME280;3924;48.830;9.262;2023-04-25T10:07:23;98148.44;;;8.38;79.11
7760;BME280;3924;48.830;9.262;2023-04-25T10:09:59;98147.16;;;8.31;79.02
7760;BME280;3924;48.830;9.262;2023-04-25T10:12:30;98149.50;;;8.13;79.17
7760;BME280;3924;48.830;9.262;2023-04-25T10:14:59;98155.22;;;8.07;79.49
7760;BME280;3924;48.830;9.262;2023-04-25T10:17:28;98168.72;;;8.07;79.67
7760;BME280;3924;48.830;9.262;2023-04-25T10:19:55;98167.13;;;8.06;79.68
7760;BME280;3924;48.830;9.262;2023-04-25T10:22:45;98174.94;;;8.07;79.83
7760;BME280;3924;48.830;9.262;2023-04-25T10:25:12;98181.72;;;8.05;79.61
7760;BME280;3924;48.830;9.262;2023-04-25T10:27:39;98192.03;;;7.98;79.88
7760;BME280;3924;48.830;9.262;2023-04-25T10:44:27;98221.53;;;7.55;80.61
7760;BME280;3924;48.830;9.262;2023-04-25T10:47:59;98218.09;;;7.49;80.95
7760;BME280;3924;48.830;9.262;2023-04-25T10:50:51;98226.44;;;7.48;80.85
7760;BME280;3924;48.830;9.262;2023-04-25T10:54:17;98226.50;;;7.37;80.71
7760;BME280;3924;48.830;9.262;2023-04-25T10:57:36;98231.63;;;7.34;81.27
7760;BME280;3924;48.830;9.262;2023-04-25T11:07:38;98242.13;;;7.40;81.21
7760;BME280;3924;48.830;9.262;2023-04-25T11:10:49;98245.38;;;7.43;81.46
7760;BME280;3924;48.830;9.262;2023-04-25T11:14:04;98241.00;;;7.47;81.41
7760;BME280;3924;48.830;9.262;2023-04-25T11:16:42;98241.75;;;7.57;81.47
7760;BME280;3924;48.830;9.262;2023-04-25T11:19:10;98240.06;;;7.66;81.39
7760;BME280;3924;48.830;9.262;2023-04-25T11:21:40;98254.81;;;7.79;81.28
7760;BME280;3924;48.830;9.262;2023-04-25T11:24:08;98250.03;;;8.00;81.18
7760;BME280;3924;48.830;9.262;2023-04-25T11:26:38;98248.81;;;8.16;80.99
7760;BME280;3924;48.830;9.262;2023-04-25T11:29:26;98252.69;;;8.39;80.57
7760;BME280;3924;48.830;9.262;2023-04-25T11:32:10;98256.97;;;8.45;80.41
7760;BME280;3924;48.830;9.262;2023-04-25T11:34:43;98260.47;;;8.46;80.23
7760;BME280;3924;48.830;9.262;2023-04-25T11:37:12;98263.50;;;8.39;80.16
7760;BME280;3924;48.830;9.262;2023-04-25T11:39:47;98262.75;;;8.29;80.69
7760;BME280;3924;48.830;9.262;2023-04-25T11:42:17;98262.44;;;8.35;80.62
7760;BME280;3924;48.830;9.262;2023-04-25T11:44:45;98267.84;;;8.35;80.31
7760;BME280;3924;48.830;9.262;2023-04-25T11:47:16;98258.56;;;8.46;80.39
7760;BME280;3924;48.830;9.262;2023-04-25T11:50:41;98263.03;;;8.56;80.42
7760;BME280;3924;48.830;9.262;2023-04-25T12:01:04;98270.06;;;8.81;80.03
7760;BME280;3924;48.830;9.262;2023-04-25T12:03:53;98264.72;;;8.76;80.16
7760;BME280;3924;48.830;9.262;2023-04-25T12:06:58;98277.13;;;8.77;80.27
7760;BME280;3924;48.830;9.262;2023-04-25T12:39:25;98290.41;;;8.49;80.56
7760;BME280;3924;48.830;9.262;2023-04-25T12:46:30;98292.78;;;8.80;80.37
7760;BME280;3924;48.830;9.262;2023-04-25T12:53:27;98273.81;;;9.66;79.36
7760;BME280;3924;48.830;9.262;2023-04-25T12:56:16;98286.06;;;10.14;78.34
7760;BME280;3924;48.830;9.262;2023-04-25T12:59:31;98281.78;;;10.60;77.73
7760;BME280;3924;48.830;9.262;2023-04-25T13:05:30;98285.91;;;10.57;77.86
7760;BME280;3924;48.830;9.262;2023-04-25T13:08:57;98289.44;;;10.72;77.83
7760;BME280;3924;48.830;9.262;2023-04-25T13:12:12;98295.34;;;10.74;77.76
7760;BME280;3924;48.830;9.262;2023-04-25T13:15:05;98290.41;;;10.62;77.88
7760;BME280;3924;48.830;9.262;2023-04-25T13:32:35;98292.31;;;10.61;77.62
7760;BME280;3924;48.830;9.262;2023-04-25T13:35:08;98294.63;;;10.54;77.88
7760;BME280;3924;48.830;9.262;2023-04-25T13:37:36;98287.00;;;10.56;77.58
7760;BME280;3924;48.830;9.262;2023-04-25T13:40:05;98293.44;;;10.60;77.62
7760;BME280;3924;48.830;9.262;2023-04-25T13:42:32;98291.22;;;10.62;77.55
7760;BME280;3924;48.830;9.262;2023-04-25T13:44:59;98292.94;;;10.58;77.55
7760;BME280;3924;48.830;9.262;2023-04-25T13:47:25;98292.38;;;10.43;77.55
7760;BME280;3924;48.830;9.262;2023-04-25T13:49:53;98293.16;;;10.29;77.91
7760;BME280;3924;48.830;9.262;2023-04-25T13:52:20;98303.19;;;10.29;77.90
7760;BME280;3924;48.830;9.262;2023-04-25T13:54:47;98304.63;;;10.40;77.68
7760;BME280;3924;48.830;9.262;2023-04-25T13:57:13;98304.25;;;10.47;77.54
7760;BME280;3924;48.830;9.262;2023-04-25T13:59:40;98299.47;;;10.57;77.22
7760;BME280;3924;48.830;9.262;2023-04-25T14:02:07;98306.19;;;10.74;77.16
7760;BME280;3924;48.830;9.262;2023-04-25T14:04:33;98312.34;;;11.20;76.34
7760;BME280;3924;48.830;9.262;2023-04-25T14:07:00;98303.44;;;11.56;75.42
7760;BME280;3924;48.830;9.262;2023-04-25T14:09:28;98300.69;;;11.84;75.03
7760;BME280;3924;48.830;9.262;2023-04-25T14:11:55;98294.59;;;12.23;74.74
7760;BME280;3924;48.830;9.262;2023-04-25T14:14:22;98303.53;;;12.46;74.15
7760;BME280;3924;48.830;9.262;2023-04-25T14:16:50;98300.34;;;11.99;74.47
7760;BME280;3924;48.830;9.262;2023-04-25T14:19:18;98298.66;;;11.53;75.33
7760;BME280;3924;48.830;9.262;2023-04-25T14:21:47;98299.66;;;11.43;75.51
7760;BME280;3924;48.830;9.262;2023-04-25T14:24:13;98297.34;;;11.37;75.62
7760;BME280;3924;48.830;9.262;2023-04-25T14:26:40;98289.53;;;11.71;75.21
7760;BME280;3924;48.830;9.262;2023-04-25T14:29:07;98291.81;;;12.14;74.24
7760;BME280;3924;48.830;9.262;2023-04-25T14:31:35;98288.81;;;12.16;74.14
7760;BME280;3924;48.830;9.262;2023-04-25T14:34:02;98296.94;;;12.38;74.02
7760;BME280;3924;48.830;9.262;2023-04-25T14:36:28;98302.47;;;12.55;73.45
7760;BME280;3924;48.830;9.262;2023-04-25T14:38:55;98306.28;;;12.23;73.48
7760;BME280;3924;48.830;9.262;2023-04-25T14:41:21;98309.53;;;11.75;74.22
7760;BME280;3924;48.830;9.262;2023-04-25T14:43:49;98309.09;;;11.46;74.61
7760;BME280;3924;48.830;9.262;2023-04-25T14:46:16;98309.31;;;11.36;74.81
7760;BME280;3924;48.830;9.262;2023-04-25T14:48:42;98313.03;;;11.40;74.74
7760;BME280;3924;48.830;9.262;2023-04-25T14:51:09;98305.41;;;11.42;74.60
7760;BME280;3924;48.830;9.262;2023-04-25T14:53:36;98307.66;;;11.62;74.33
7760;BME280;3924;48.830;9.262;2023-04-25T14:56:03;98306.44;;;11.68;73.91
7760;BME280;3924;48.830;9.262;2023-04-25T14:58:30;98307.03;;;11.65;73.89
7760;BME280;3924;48.830;9.262;2023-04-25T15:00:58;98314.22;;;11.61;73.95
7760;BME280;3924;48.830;9.262;2023-04-25T15:03:24;98310.75;;;11.83;73.60
7760;BME280;3924;48.830;9.262;2023-04-25T15:05:52;98311.47;;;12.11;72.67
7760;BME280;3924;48.830;9.262;2023-04-25T15:08:19;98312.81;;;12.00;73.12
7760;BME280;3924;48.830;9.262;2023-04-25T15:10:46;98312.94;;;12.17;72.64
7760;BME280;3924;48.830;9.262;2023-04-25T15:13:13;98317.47;;;11.86;72.89
7760;BME280;3924;48.830;9.262;2023-04-25T15:15:39;98314.50;;;11.60;73.21
7760;BME280;3924;48.830;9.262;2023-04-25T15:18:06;98320.19;;;11.72;73.08
7760;BME280;3924;48.830;9.262;2023-04-25T15:20:33;98310.53;;;11.79;72.74
7760;BME280;3924;48.830;9.262;2023-04-25T15:22:59;98310.66;;;11.74;72.87
7760;BME280;3924;48.830;9.262;2023-04-25T15:25:25;98312.59;;;11.60;72.88
7760;BME280;3924;48.830;9.262;2023-04-25T15:27:54;98312.53;;;11.38;73.17
7760;BME280;3924;48.830;9.262;2023-04-25T15:30:21;98327.44;;;11.27;73.13
7760;BME280;3924;48.830;9.262;2023-04-25T15:32:48;98317.25;;;11.18;73.14
7760;BME280;3924;48.830;9.262;2023-04-25T15:35:14;98319.16;;;11.18;73.25
7760;BME280;3924;48.830;9.262;2023-04-25T15:37:41;98325.41;;;11.18;73.06
7760;BME280;3924;48.830;9.262;2023-04-25T15:40:15;98330.16;;;11.13;73.05
7760;BME280;3924;48.830;9.262;2023-04-25T15:42:46;98335.16;;;11.19;72.75
7760;BME280;3924;48.830;9.262;2023-04-25T15:45:14;98328.72;;;11.29;72.68
7760;BME280;3924;48.830;9.262;2023-04-25T15:47:43;98327.09;;;11.42;72.35
7760;BME280;3924;48.830;9.262;2023-04-25T15:50:11;98329.97;;;11.59;71.92
7760;BME280;3924;48.830;9.262;2023-04-25T15:52:37;98328.78;;;11.51;72.05
7760;BME280;3924;48.830;9.262;2023-04-25T15:55:04;98336.25;;;11.32;72.23
7760;BME280;3924;48.830;9.262;2023-04-25T15:57:33;98338.16;;;11.18;72.45
7760;BME280;3924;48.830;9.262;2023-04-25T16:00:00;98335.03;;;11.11;72.50
7760;BME280;3924;48.830;9.262;2023-04-25T16:02:28;98336.88;;;11.02;72.38